Pineland, Florida
Current Conditions -  °F | °C
As of 8:53 PM on Sunday 23 Nov 2014 (Local Time) from KFMY Reporting Station
Clear Clear  
Wind Chill: 77°   Ceiling: Unl
Heat Index: 78°   Visibility: 10mi
Dew Point: 73°   Wind: 7mph
Humidity: 88%   Direction: 170°S
Pressure: 29.93"   Gusts: NA
Location:  26.66°N, 82.15°W
Report Text: KFMY 240153Z 17006KT 10SM CLR 25/23 A2993 RMK AO2 SLP137 T02500228
Loading
Personal Weather Stations






























Interactive Weather Map New forecast layout! Learn more

10-Day Weather Forecast

Advertisements
Track Severe Weather on mobile